sensor_id;sensor_type;location;lat;lon;timestamp;P1;durP1;ratioP1;P2;durP2;ratioP2
81523;SDS011;70954;49.500;10.416;2023-11-19T00:01:46;1.73;;;1.25;;
81523;SDS011;70954;49.500;10.416;2023-11-19T00:04:11;1.00;;;0.90;;
81523;SDS011;70954;49.500;10.416;2023-11-19T00:06:37;0.82;;;0.80;;
81523;SDS011;70954;49.500;10.416;2023-11-19T00:09:02;1.10;;;0.93;;
81523;SDS011;70954;49.500;10.416;2023-11-19T00:11:28;1.48;;;1.15;;
81523;SDS011;70954;49.500;10.416;2023-11-19T00:13:53;1.20;;;1.10;;
81523;SDS011;70954;49.500;10.416;2023-11-19T00:16:19;1.52;;;1.10;;
81523;SDS011;70954;49.500;10.416;2023-11-19T00:18:44;1.35;;;0.93;;
81523;SDS011;70954;49.500;10.416;2023-11-19T00:21:10;1.00;;;0.90;;
81523;SDS011;70954;49.500;10.416;2023-11-19T00:23:35;1.00;;;0.90;;
81523;SDS011;70954;49.500;10.416;2023-11-19T00:26:01;1.05;;;0.98;;
81523;SDS011;70954;49.500;10.416;2023-11-19T00:28:27;2.03;;;1.25;;
81523;SDS011;70954;49.500;10.416;2023-11-19T00:30:52;1.73;;;1.10;;
81523;SDS011;70954;49.500;10.416;2023-11-19T00:33:17;1.10;;;1.00;;
81523;SDS011;70954;49.500;10.416;2023-11-19T00:35:43;1.45;;;0.88;;
81523;SDS011;70954;49.500;10.416;2023-11-19T00:38:08;1.17;;;1.08;;
81523;SDS011;70954;49.500;10.416;2023-11-19T00:40:34;1.20;;;0.88;;
81523;SDS011;70954;49.500;10.416;2023-11-19T00:42:59;0.98;;;0.90;;
81523;SDS011;70954;49.500;10.416;2023-11-19T00:45:25;1.30;;;1.17;;
81523;SDS011;70954;49.500;10.416;2023-11-19T00:47:50;1.25;;;1.10;;
81523;SDS011;70954;49.500;10.416;2023-11-19T00:50:16;1.30;;;1.10;;
81523;SDS011;70954;49.500;10.416;2023-11-19T00:52:41;0.95;;;0.85;;
81523;SDS011;70954;49.500;10.416;2023-11-19T00:55:07;1.20;;;1.10;;
81523;SDS011;70954;49.500;10.416;2023-11-19T00:57:32;1.83;;;1.00;;
81523;SDS011;70954;49.500;10.416;2023-11-19T00:59:58;1.35;;;1.20;;
81523;SDS011;70954;49.500;10.416;2023-11-19T01:02:24;1.23;;;0.77;;
81523;SDS011;70954;49.500;10.416;2023-11-19T01:04:50;0.93;;;0.80;;
81523;SDS011;70954;49.500;10.416;2023-11-19T01:07:15;1.63;;;1.00;;
81523;SDS011;70954;49.500;10.416;2023-11-19T01:09:41;1.20;;;1.00;;
81523;SDS011;70954;49.500;10.416;2023-11-19T01:12:07;1.40;;;1.30;;
81523;SDS011;70954;49.500;10.416;2023-11-19T01:14:33;1.02;;;0.95;;
81523;SDS011;70954;49.500;10.416;2023-11-19T01:16:58;1.50;;;1.10;;
81523;SDS011;70954;49.500;10.416;2023-11-19T01:19:23;2.50;;;1.40;;
81523;SDS011;70954;49.500;10.416;2023-11-19T01:21:49;1.33;;;1.23;;
81523;SDS011;70954;49.500;10.416;2023-11-19T01:24:17;2.08;;;1.13;;
81523;SDS011;70954;49.500;10.416;2023-11-19T01:26:43;1.10;;;1.00;;
81523;SDS011;70954;49.500;10.416;2023-11-19T01:29:09;1.30;;;1.00;;
81523;SDS011;70954;49.500;10.416;2023-11-19T01:31:34;1.08;;;0.90;;
81523;SDS011;70954;49.500;10.416;2023-11-19T01:34:00;1.23;;;1.13;;
81523;SDS011;70954;49.500;10.416;2023-11-19T01:36:25;1.15;;;0.90;;
81523;SDS011;70954;49.500;10.416;2023-11-19T01:38:51;1.10;;;1.00;;
81523;SDS011;70954;49.500;10.416;2023-11-19T01:41:16;0.90;;;0.90;;
81523;SDS011;70954;49.500;10.416;2023-11-19T01:43:42;1.00;;;0.90;;
81523;SDS011;70954;49.500;10.416;2023-11-19T01:46:07;0.82;;;0.82;;
81523;SDS011;70954;49.500;10.416;2023-11-19T01:48:33;1.00;;;0.90;;
81523;SDS011;70954;49.500;10.416;2023-11-19T01:50:59;1.98;;;0.77;;
81523;SDS011;70954;49.500;10.416;2023-11-19T01:53:25;1.13;;;0.93;;
81523;SDS011;70954;49.500;10.416;2023-11-19T01:55:52;0.88;;;0.88;;
81523;SDS011;70954;49.500;10.416;2023-11-19T01:58:17;1.17;;;1.00;;
81523;SDS011;70954;49.500;10.416;2023-11-19T02:00:44;1.10;;;1.00;;
81523;SDS011;70954;49.500;10.416;2023-11-19T02:03:10;0.80;;;0.80;;
81523;SDS011;70954;49.500;10.416;2023-11-19T02:05:36;1.02;;;0.93;;
81523;SDS011;70954;49.500;10.416;2023-11-19T02:08:03;0.77;;;0.77;;
81523;SDS011;70954;49.500;10.416;2023-11-19T02:10:29;1.20;;;0.82;;
81523;SDS011;70954;49.500;10.416;2023-11-19T02:12:54;0.80;;;0.80;;
81523;SDS011;70954;49.500;10.416;2023-11-19T02:15:20;2.58;;;1.63;;
81523;SDS011;70954;49.500;10.416;2023-11-19T02:17:45;2.25;;;1.38;;
81523;SDS011;70954;49.500;10.416;2023-11-19T02:20:11;1.83;;;1.23;;
81523;SDS011;70954;49.500;10.416;2023-11-19T02:22:36;1.40;;;1.10;;
81523;SDS011;70954;49.500;10.416;2023-11-19T02:25:07;1.67;;;1.08;;
81523;SDS011;70954;49.500;10.416;2023-11-19T02:27:40;2.65;;;1.20;;
81523;SDS011;70954;49.500;10.416;2023-11-19T02:30:16;1.10;;;1.00;;
81523;SDS011;70954;49.500;10.416;2023-11-19T02:32:41;2.55;;;1.20;;
81523;SDS011;70954;49.500;10.416;2023-11-19T02:35:07;1.38;;;0.90;;
81523;SDS011;70954;49.500;10.416;2023-11-19T02:37:33;1.08;;;0.90;;
81523;SDS011;70954;49.500;10.416;2023-11-19T02:39:59;0.80;;;0.80;;
81523;SDS011;70954;49.500;10.416;2023-11-19T02:42:24;0.80;;;0.80;;
81523;SDS011;70954;49.500;10.416;2023-11-19T02:44:50;0.90;;;0.80;;
81523;SDS011;70954;49.500;10.416;2023-11-19T02:47:15;0.80;;;0.55;;
81523;SDS011;70954;49.500;10.416;2023-11-19T02:49:41;1.00;;;0.52;;
81523;SDS011;70954;49.500;10.416;2023-11-19T02:52:06;0.50;;;0.50;;
81523;SDS011;70954;49.500;10.416;2023-11-19T02:54:32;0.60;;;0.50;;
81523;SDS011;70954;49.500;10.416;2023-11-19T02:56:57;0.60;;;0.60;;
81523;SDS011;70954;49.500;10.416;2023-11-19T02:59:23;0.60;;;0.60;;
81523;SDS011;70954;49.500;10.416;2023-11-19T03:01:48;0.63;;;0.60;;
81523;SDS011;70954;49.500;10.416;2023-11-19T03:04:14;0.80;;;0.80;;
81523;SDS011;70954;49.500;10.416;2023-11-19T03:06:39;0.73;;;0.60;;
81523;SDS011;70954;49.500;10.416;2023-11-19T03:09:05;0.60;;;0.60;;
81523;SDS011;70954;49.500;10.416;2023-11-19T03:11:30;0.75;;;0.75;;
81523;SDS011;70954;49.500;10.416;2023-11-19T03:13:55;0.60;;;0.60;;
81523;SDS011;70954;49.500;10.416;2023-11-19T03:16:21;0.50;;;0.50;;
81523;SDS011;70954;49.500;10.416;2023-11-19T03:18:46;1.13;;;0.63;;
81523;SDS011;70954;49.500;10.416;2023-11-19T03:21:12;0.50;;;0.50;;
81523;SDS011;70954;49.500;10.416;2023-11-19T03:23:37;0.50;;;0.50;;
81523;SDS011;70954;49.500;10.416;2023-11-19T03:26:03;3.92;;;0.82;;
81523;SDS011;70954;49.500;10.416;2023-11-19T03:28:29;0.55;;;0.55;;
81523;SDS011;70954;49.500;10.416;2023-11-19T03:30:54;0.52;;;0.52;;
81523;SDS011;70954;49.500;10.416;2023-11-19T03:33:20;0.63;;;0.63;;
81523;SDS011;70954;49.500;10.416;2023-11-19T03:35:45;0.40;;;0.40;;
81523;SDS011;70954;49.500;10.416;2023-11-19T03:38:10;0.40;;;0.40;;
81523;SDS011;70954;49.500;10.416;2023-11-19T03:40:36;0.32;;;0.30;;
81523;SDS011;70954;49.500;10.416;2023-11-19T03:43:01;0.50;;;0.50;;
81523;SDS011;70954;49.500;10.416;2023-11-19T03:45:27;0.40;;;0.40;;
81523;SDS011;70954;49.500;10.416;2023-11-19T03:47:52;0.22;;;0.22;;
81523;SDS011;70954;49.500;10.416;2023-11-19T03:50:18;0.35;;;0.35;;
81523;SDS011;70954;49.500;10.416;2023-11-19T03:52:43;0.40;;;0.40;;
81523;SDS011;70954;49.500;10.416;2023-11-19T03:55:09;0.40;;;0.40;;
81523;SDS011;70954;49.500;10.416;2023-11-19T03:57:34;0.40;;;0.40;;
81523;SDS011;70954;49.500;10.416;2023-11-19T04:00:00;0.30;;;0.30;;
81523;SDS011;70954;49.500;10.416;2023-11-19T04:02:26;0.30;;;0.30;;
81523;SDS011;70954;49.500;10.416;2023-11-19T04:04:51;0.40;;;0.40;;
81523;SDS011;70954;49.500;10.416;2023-11-19T04:07:17;0.30;;;0.30;;
81523;SDS011;70954;49.500;10.416;2023-11-19T04:09:42;0.30;;;0.30;;
81523;SDS011;70954;49.500;10.416;2023-11-19T04:12:08;0.30;;;0.30;;
81523;SDS011;70954;49.500;10.416;2023-11-19T04:14:33;0.40;;;0.40;;
81523;SDS011;70954;49.500;10.416;2023-11-19T04:16:59;0.50;;;0.50;;
81523;SDS011;70954;49.500;10.416;2023-11-19T04:19:24;0.20;;;0.20;;
81523;SDS011;70954;49.500;10.416;2023-11-19T04:21:49;0.30;;;0.30;;
81523;SDS011;70954;49.500;10.416;2023-11-19T04:24:15;0.73;;;0.30;;
81523;SDS011;70954;49.500;10.416;2023-11-19T04:26:41;0.55;;;0.40;;
81523;SDS011;70954;49.500;10.416;2023-11-19T04:29:08;0.30;;;0.30;;
81523;SDS011;70954;49.500;10.416;2023-11-19T04:31:34;0.40;;;0.32;;
81523;SDS011;70954;49.500;10.416;2023-11-19T04:33:59;0.30;;;0.30;;
81523;SDS011;70954;49.500;10.416;2023-11-19T04:36:25;0.40;;;0.40;;
81523;SDS011;70954;49.500;10.416;2023-11-19T04:38:50;0.55;;;0.52;;
81523;SDS011;70954;49.500;10.416;2023-11-19T04:41:16;0.40;;;0.40;;
81523;SDS011;70954;49.500;10.416;2023-11-19T04:43:41;0.30;;;0.30;;
81523;SDS011;70954;49.500;10.416;2023-11-19T04:46:07;0.40;;;0.40;;
81523;SDS011;70954;49.500;10.416;2023-11-19T04:48:35;0.40;;;0.40;;
81523;SDS011;70954;49.500;10.416;2023-11-19T04:51:00;0.40;;;0.40;;
81523;SDS011;70954;49.500;10.416;2023-11-19T04:53:26;0.70;;;0.60;;
81523;SDS011;70954;49.500;10.416;2023-11-19T04:55:51;0.70;;;0.60;;
81523;SDS011;70954;49.500;10.416;2023-11-19T04:58:16;0.50;;;0.50;;
81523;SDS011;70954;49.500;10.416;2023-11-19T05:00:42;0.95;;;0.73;;
81523;SDS011;70954;49.500;10.416;2023-11-19T05:03:07;0.50;;;0.50;;
81523;SDS011;70954;49.500;10.416;2023-11-19T05:05:33;0.60;;;0.50;;
81523;SDS011;70954;49.500;10.416;2023-11-19T05:07:58;0.50;;;0.50;;
81523;SDS011;70954;49.500;10.416;2023-11-19T05:10:24;0.50;;;0.50;;
81523;SDS011;70954;49.500;10.416;2023-11-19T05:12:49;0.65;;;0.50;;
81523;SDS011;70954;49.500;10.416;2023-11-19T05:15:14;0.63;;;0.50;;
81523;SDS011;70954;49.500;10.416;2023-11-19T05:17:40;0.70;;;0.65;;
81523;SDS011;70954;49.500;10.416;2023-11-19T05:20:05;1.20;;;0.65;;
81523;SDS011;70954;49.500;10.416;2023-11-19T05:22:31;0.70;;;0.70;;
81523;SDS011;70954;49.500;10.416;2023-11-19T05:24:57;0.70;;;0.70;;
81523;SDS011;70954;49.500;10.416;2023-11-19T05:27:22;0.82;;;0.50;;
81523;SDS011;70954;49.500;10.416;2023-11-19T05:29:48;0.57;;;0.57;;
81523;SDS011;70954;49.500;10.416;2023-11-19T05:32:13;0.40;;;0.40;;
81523;SDS011;70954;49.500;10.416;2023-11-19T05:34:38;0.73;;;0.60;;
81523;SDS011;70954;49.500;10.416;2023-11-19T05:37:04;0.50;;;0.50;;
81523;SDS011;70954;49.500;10.416;2023-11-19T05:39:29;0.40;;;0.40;;
81523;SDS011;70954;49.500;10.416;2023-11-19T05:41:55;0.30;;;0.30;;
81523;SDS011;70954;49.500;10.416;2023-11-19T05:44:20;0.40;;;0.40;;
81523;SDS011;70954;49.500;10.416;2023-11-19T05:46:46;0.30;;;0.30;;
81523;SDS011;70954;49.500;10.416;2023-11-19T05:49:11;0.57;;;0.30;;
81523;SDS011;70954;49.500;10.416;2023-11-19T05:51:37;0.30;;;0.30;;
81523;SDS011;70954;49.500;10.416;2023-11-19T05:54:03;0.30;;;0.30;;
81523;SDS011;70954;49.500;10.416;2023-11-19T05:56:29;0.40;;;0.40;;
81523;SDS011;70954;49.500;10.416;2023-11-19T05:58:54;0.40;;;0.40;;
81523;SDS011;70954;49.500;10.416;2023-11-19T06:01:19;0.50;;;0.50;;
81523;SDS011;70954;49.500;10.416;2023-11-19T06:03:45;0.50;;;0.50;;
81523;SDS011;70954;49.500;10.416;2023-11-19T06:06:11;0.40;;;0.40;;
81523;SDS011;70954;49.500;10.416;2023-11-19T06:08:36;0.60;;;0.60;;
81523;SDS011;70954;49.500;10.416;2023-11-19T06:11:02;0.60;;;0.50;;
81523;SDS011;70954;49.500;10.416;2023-11-19T06:13:27;1.50;;;0.60;;
81523;SDS011;70954;49.500;10.416;2023-11-19T06:15:53;0.55;;;0.55;;
81523;SDS011;70954;49.500;10.416;2023-11-19T06:18:18;0.50;;;0.50;;
81523;SDS011;70954;49.500;10.416;2023-11-19T06:20:44;0.50;;;0.50;;
81523;SDS011;70954;49.500;10.416;2023-11-19T06:23:09;0.50;;;0.50;;
81523;SDS011;70954;49.500;10.416;2023-11-19T06:25:34;0.50;;;0.50;;
81523;SDS011;70954;49.500;10.416;2023-11-19T06:28:00;1.17;;;0.50;;
81523;SDS011;70954;49.500;10.416;2023-11-19T06:30:25;0.50;;;0.50;;
81523;SDS011;70954;49.500;10.416;2023-11-19T06:32:51;0.40;;;0.40;;
81523;SDS011;70954;49.500;10.416;2023-11-19T06:35:16;1.23;;;0.60;;
81523;SDS011;70954;49.500;10.416;2023-11-19T06:37:42;0.50;;;0.50;;
81523;SDS011;70954;49.500;10.416;2023-11-19T06:40:07;0.55;;;0.55;;
81523;SDS011;70954;49.500;10.416;2023-11-19T06:42:33;0.65;;;0.60;;
81523;SDS011;70954;49.500;10.416;2023-11-19T06:44:59;0.73;;;0.50;;
81523;SDS011;70954;49.500;10.416;2023-11-19T06:47:27;0.60;;;0.60;;
81523;SDS011;70954;49.500;10.416;2023-11-19T06:49:53;0.70;;;0.50;;
81523;SDS011;70954;49.500;10.416;2023-11-19T06:52:21;0.50;;;0.50;;
81523;SDS011;70954;49.500;10.416;2023-11-19T06:54:47;0.63;;;0.50;;
81523;SDS011;70954;49.500;10.416;2023-11-19T06:57:12;0.60;;;0.52;;
81523;SDS011;70954;49.500;10.416;2023-11-19T06:59:38;1.10;;;0.40;;
81523;SDS011;70954;49.500;10.416;2023-11-19T07:02:04;0.50;;;0.50;;
81523;SDS011;70954;49.500;10.416;2023-11-19T07:04:31;1.15;;;0.45;;
81523;SDS011;70954;49.500;10.416;2023-11-19T07:06:56;0.82;;;0.60;;
81523;SDS011;70954;49.500;10.416;2023-11-19T07:09:22;0.50;;;0.50;;
81523;SDS011;70954;49.500;10.416;2023-11-19T07:11:47;0.88;;;0.50;;
81523;SDS011;70954;49.500;10.416;2023-11-19T07:14:13;0.88;;;0.60;;
81523;SDS011;70954;49.500;10.416;2023-11-19T07:16:39;2.58;;;1.45;;
81523;SDS011;70954;49.500;10.416;2023-11-19T07:19:04;0.90;;;0.80;;
81523;SDS011;70954;49.500;10.416;2023-11-19T07:21:31;1.38;;;1.27;;
81523;SDS011;70954;49.500;10.416;2023-11-19T07:23:57;1.50;;;1.05;;
81523;SDS011;70954;49.500;10.416;2023-11-19T07:26:22;0.73;;;0.70;;
81523;SDS011;70954;49.500;10.416;2023-11-19T07:28:51;0.98;;;0.93;;
81523;SDS011;70954;49.500;10.416;2023-11-19T07:31:17;1.10;;;1.00;;
81523;SDS011;70954;49.500;10.416;2023-11-19T07:33:43;0.77;;;0.60;;
81523;SDS011;70954;49.500;10.416;2023-11-19T07:36:08;1.20;;;1.10;;
81523;SDS011;70954;49.500;10.416;2023-11-19T07:38:34;1.73;;;0.70;;
81523;SDS011;70954;49.500;10.416;2023-11-19T07:41:00;0.77;;;0.73;;
81523;SDS011;70954;49.500;10.416;2023-11-19T07:43:26;1.52;;;0.55;;
81523;SDS011;70954;49.500;10.416;2023-11-19T07:45:51;0.70;;;0.70;;
81523;SDS011;70954;49.500;10.416;2023-11-19T07:48:17;0.70;;;0.70;;
81523;SDS011;70954;49.500;10.416;2023-11-19T07:50:43;1.30;;;0.95;;
81523;SDS011;70954;49.500;10.416;2023-11-19T07:53:08;1.55;;;0.88;;
81523;SDS011;70954;49.500;10.416;2023-11-19T07:55:34;1.08;;;0.70;;
81523;SDS011;70954;49.500;10.416;2023-11-19T07:57:59;2.17;;;0.90;;
81523;SDS011;70954;49.500;10.416;2023-11-19T08:00:25;1.30;;;0.80;;
81523;SDS011;70954;49.500;10.416;2023-11-19T08:02:50;0.98;;;0.70;;
81523;SDS011;70954;49.500;10.416;2023-11-19T08:05:16;0.90;;;0.85;;
81523;SDS011;70954;49.500;10.416;2023-11-19T08:07:41;0.75;;;0.70;;
81523;SDS011;70954;49.500;10.416;2023-11-19T08:10:06;2.33;;;0.75;;
81523;SDS011;70954;49.500;10.416;2023-11-19T08:12:32;1.75;;;0.65;;
81523;SDS011;70954;49.500;10.416;2023-11-19T08:14:58;0.50;;;0.50;;
81523;SDS011;70954;49.500;10.416;2023-11-19T08:17:23;0.60;;;0.60;;
81523;SDS011;70954;49.500;10.416;2023-11-19T08:19:49;0.60;;;0.60;;
81523;SDS011;70954;49.500;10.416;2023-11-19T08:22:16;1.05;;;0.50;;
81523;SDS011;70954;49.500;10.416;2023-11-19T08:24:41;0.60;;;0.50;;
81523;SDS011;70954;49.500;10.416;2023-11-19T08:27:07;1.42;;;0.60;;
81523;SDS011;70954;49.500;10.416;2023-11-19T08:29:32;0.90;;;0.57;;
81523;SDS011;70954;49.500;10.416;2023-11-19T08:31:59;0.60;;;0.60;;
81523;SDS011;70954;49.500;10.416;2023-11-19T08:34:25;0.70;;;0.70;;
81523;SDS011;70954;49.500;10.416;2023-11-19T08:36:51;1.30;;;1.00;;
81523;SDS011;70954;49.500;10.416;2023-11-19T08:39:16;1.40;;;0.70;;
81523;SDS011;70954;49.500;10.416;2023-11-19T08:41:41;1.63;;;0.60;;
81523;SDS011;70954;49.500;10.416;2023-11-19T08:44:08;2.00;;;0.80;;
81523;SDS011;70954;49.500;10.416;2023-11-19T08:46:33;0.60;;;0.60;;
81523;SDS011;70954;49.500;10.416;2023-11-19T08:48:59;0.85;;;0.65;;
81523;SDS011;70954;49.500;10.416;2023-11-19T08:51:24;2.28;;;0.80;;
81523;SDS011;70954;49.500;10.416;2023-11-19T08:53:50;3.20;;;0.80;;
81523;SDS011;70954;49.500;10.416;2023-11-19T08:56:15;1.00;;;0.65;;
81523;SDS011;70954;49.500;10.416;2023-11-19T08:58:41;0.80;;;0.60;;
81523;SDS011;70954;49.500;10.416;2023-11-19T09:01:06;0.75;;;0.70;;
81523;SDS011;70954;49.500;10.416;2023-11-19T09:03:31;0.90;;;0.70;;
81523;SDS011;70954;49.500;10.416;2023-11-19T09:05:57;0.60;;;0.60;;
81523;SDS011;70954;49.500;10.416;2023-11-19T09:08:22;1.00;;;0.70;;
81523;SDS011;70954;49.500;10.416;2023-11-19T09:10:48;9.57;;;3.63;;
81523;SDS011;70954;49.500;10.416;2023-11-19T09:13:13;4.55;;;1.52;;
81523;SDS011;70954;49.500;10.416;2023-11-19T09:15:39;4.35;;;2.58;;
81523;SDS011;70954;49.500;10.416;2023-11-19T09:18:04;2.88;;;1.83;;
81523;SDS011;70954;49.500;10.416;2023-11-19T09:20:30;1.90;;;1.23;;
81523;SDS011;70954;49.500;10.416;2023-11-19T09:22:55;1.45;;;0.93;;
81523;SDS011;70954;49.500;10.416;2023-11-19T09:25:21;0.82;;;0.82;;
81523;SDS011;70954;49.500;10.416;2023-11-19T09:27:46;1.65;;;0.80;;
81523;SDS011;70954;49.500;10.416;2023-11-19T09:30:12;0.60;;;0.60;;
81523;SDS011;70954;49.500;10.416;2023-11-19T09:32:37;0.85;;;0.70;;
81523;SDS011;70954;49.500;10.416;2023-11-19T09:35:03;1.45;;;0.60;;
81523;SDS011;70954;49.500;10.416;2023-11-19T09:37:29;1.70;;;0.90;;
81523;SDS011;70954;49.500;10.416;2023-11-19T09:39:54;0.82;;;0.70;;
81523;SDS011;70954;49.500;10.416;2023-11-19T09:42:20;2.15;;;0.77;;
81523;SDS011;70954;49.500;10.416;2023-11-19T09:44:45;2.83;;;1.33;;
81523;SDS011;70954;49.500;10.416;2023-11-19T09:47:12;1.73;;;1.00;;
81523;SDS011;70954;49.500;10.416;2023-11-19T09:49:39;1.40;;;0.60;;
81523;SDS011;70954;49.500;10.416;2023-11-19T09:52:05;1.15;;;1.05;;
81523;SDS011;70954;49.500;10.416;2023-11-19T09:54:30;0.75;;;0.60;;
81523;SDS011;70954;49.500;10.416;2023-11-19T09:56:56;0.90;;;0.70;;
81523;SDS011;70954;49.500;10.416;2023-11-19T09:59:23;2.58;;;0.63;;
81523;SDS011;70954;49.500;10.416;2023-11-19T10:01:48;0.70;;;0.68;;
81523;SDS011;70954;49.500;10.416;2023-11-19T10:04:15;0.55;;;0.50;;
81523;SDS011;70954;49.500;10.416;2023-11-19T10:06:41;0.60;;;0.40;;
81523;SDS011;70954;49.500;10.416;2023-11-19T10:09:07;1.00;;;0.90;;
81523;SDS011;70954;49.500;10.416;2023-11-19T10:11:32;4.78;;;0.98;;
81523;SDS011;70954;49.500;10.416;2023-11-19T10:13:58;1.77;;;0.40;;
81523;SDS011;70954;49.500;10.416;2023-11-19T10:16:28;1.05;;;0.70;;
81523;SDS011;70954;49.500;10.416;2023-11-19T10:18:54;0.50;;;0.50;;
81523;SDS011;70954;49.500;10.416;2023-11-19T10:21:21;2.10;;;0.60;;
81523;SDS011;70954;49.500;10.416;2023-11-19T10:23:50;1.02;;;0.60;;
81523;SDS011;70954;49.500;10.416;2023-11-19T10:26:17;0.95;;;0.70;;
81523;SDS011;70954;49.500;10.416;2023-11-19T10:28:43;1.40;;;0.90;;
81523;SDS011;70954;49.500;10.416;2023-11-19T10:31:08;1.15;;;1.00;;
81523;SDS011;70954;49.500;10.416;2023-11-19T10:33:34;2.55;;;0.80;;
81523;SDS011;70954;49.500;10.416;2023-11-19T10:35:59;1.17;;;0.80;;
81523;SDS011;70954;49.500;10.416;2023-11-19T10:38:25;1.20;;;0.80;;
81523;SDS011;70954;49.500;10.416;2023-11-19T10:40:51;1.33;;;0.50;;
81523;SDS011;70954;49.500;10.416;2023-11-19T10:43:17;2.63;;;0.70;;
81523;SDS011;70954;49.500;10.416;2023-11-19T10:45:44;1.20;;;0.60;;
81523;SDS011;70954;49.500;10.416;2023-11-19T10:48:10;1.83;;;0.68;;
81523;SDS011;70954;49.500;10.416;2023-11-19T10:50:37;2.90;;;0.70;;
81523;SDS011;70954;49.500;10.416;2023-11-19T10:53:03;1.35;;;0.60;;
81523;SDS011;70954;49.500;10.416;2023-11-19T10:55:31;1.02;;;0.57;;
81523;SDS011;70954;49.500;10.416;2023-11-19T10:58:01;0.90;;;0.70;;
81523;SDS011;70954;49.500;10.416;2023-11-19T11:00:38;1.05;;;0.90;;
81523;SDS011;70954;49.500;10.416;2023-11-19T11:03:10;1.35;;;0.75;;
81523;SDS011;70954;49.500;10.416;2023-11-19T11:05:40;1.73;;;0.60;;
81523;SDS011;70954;49.500;10.416;2023-11-19T11:08:06;2.08;;;1.00;;
81523;SDS011;70954;49.500;10.416;2023-11-19T11:10:32;1.30;;;0.70;;
81523;SDS011;70954;49.500;10.416;2023-11-19T11:13:04;1.08;;;0.70;;
81523;SDS011;70954;49.500;10.416;2023-11-19T11:15:31;2.42;;;0.80;;
81523;SDS011;70954;49.500;10.416;2023-11-19T11:18:01;1.65;;;0.65;;
81523;SDS011;70954;49.500;10.416;2023-11-19T11:20:28;0.93;;;0.68;;
81523;SDS011;70954;49.500;10.416;2023-11-19T11:28:41;2.15;;;0.73;;
81523;SDS011;70954;49.500;10.416;2023-11-19T11:36:36;1.83;;;0.65;;
81523;SDS011;70954;49.500;10.416;2023-11-19T11:39:27;0.60;;;0.60;;
81523;SDS011;70954;49.500;10.416;2023-11-19T11:42:55;1.10;;;0.70;;
81523;SDS011;70954;49.500;10.416;2023-11-19T11:48:30;2.40;;;0.90;;
81523;SDS011;70954;49.500;10.416;2023-11-19T11:50:24;1.85;;;0.90;;
81523;SDS011;70954;49.500;10.416;2023-11-19T11:55:25;2.90;;;0.90;;
81523;SDS011;70954;49.500;10.416;2023-11-19T11:57:54;1.45;;;1.02;;
81523;SDS011;70954;49.500;10.416;2023-11-19T12:00:21;1.25;;;0.88;;
81523;SDS011;70954;49.500;10.416;2023-11-19T12:02:51;1.77;;;0.88;;
81523;SDS011;70954;49.500;10.416;2023-11-19T12:05:16;1.42;;;0.90;;
81523;SDS011;70954;49.500;10.416;2023-11-19T12:07:44;2.42;;;1.15;;
81523;SDS011;70954;49.500;10.416;2023-11-19T12:10:20;1.60;;;1.00;;
81523;SDS011;70954;49.500;10.416;2023-11-19T12:12:45;1.45;;;0.90;;
81523;SDS011;70954;49.500;10.416;2023-11-19T12:15:11;1.27;;;0.90;;
81523;SDS011;70954;49.500;10.416;2023-11-19T12:17:37;1.83;;;0.90;;
81523;SDS011;70954;49.500;10.416;2023-11-19T12:20:06;1.20;;;0.80;;
81523;SDS011;70954;49.500;10.416;2023-11-19T12:22:32;1.50;;;0.73;;
81523;SDS011;70954;49.500;10.416;2023-11-19T12:24:57;2.85;;;0.98;;
81523;SDS011;70954;49.500;10.416;2023-11-19T12:27:23;1.45;;;1.00;;
81523;SDS011;70954;49.500;10.416;2023-11-19T12:29:49;3.00;;;0.90;;
81523;SDS011;70954;49.500;10.416;2023-11-19T12:32:14;2.40;;;1.02;;
81523;SDS011;70954;49.500;10.416;2023-11-19T12:34:40;2.25;;;0.93;;
81523;SDS011;70954;49.500;10.416;2023-11-19T12:37:05;2.25;;;0.60;;
81523;SDS011;70954;49.500;10.416;2023-11-19T12:39:31;1.23;;;0.70;;
81523;SDS011;70954;49.500;10.416;2023-11-19T12:41:57;3.10;;;1.00;;
81523;SDS011;70954;49.500;10.416;2023-11-19T12:44:22;1.42;;;1.00;;
81523;SDS011;70954;49.500;10.416;2023-11-19T12:46:58;0.90;;;0.70;;
81523;SDS011;70954;49.500;10.416;2023-11-19T12:49:33;1.35;;;0.88;;
81523;SDS011;70954;49.500;10.416;2023-11-19T12:51:59;2.03;;;0.88;;
81523;SDS011;70954;49.500;10.416;2023-11-19T12:54:37;1.83;;;0.90;;
81523;SDS011;70954;49.500;10.416;2023-11-19T12:57:03;1.50;;;0.63;;
81523;SDS011;70954;49.500;10.416;2023-11-19T12:59:29;1.08;;;0.70;;
81523;SDS011;70954;49.500;10.416;2023-11-19T13:01:55;3.17;;;0.90;;
81523;SDS011;70954;49.500;10.416;2023-11-19T13:04:21;2.53;;;0.75;;
81523;SDS011;70954;49.500;10.416;2023-11-19T13:06:47;1.30;;;0.93;;
81523;SDS011;70954;49.500;10.416;2023-11-19T13:09:22;2.72;;;0.80;;
81523;SDS011;70954;49.500;10.416;2023-11-19T13:11:49;2.45;;;1.00;;
81523;SDS011;70954;49.500;10.416;2023-11-19T13:14:14;2.85;;;0.68;;
81523;SDS011;70954;49.500;10.416;2023-11-19T13:16:40;1.05;;;0.80;;
81523;SDS011;70954;49.500;10.416;2023-11-19T13:19:05;1.55;;;0.80;;
81523;SDS011;70954;49.500;10.416;2023-11-19T13:21:31;0.95;;;0.52;;
81523;SDS011;70954;49.500;10.416;2023-11-19T13:23:56;1.35;;;0.60;;
81523;SDS011;70954;49.500;10.416;2023-11-19T13:26:22;0.90;;;0.70;;
81523;SDS011;70954;49.500;10.416;2023-11-19T13:28:48;3.10;;;0.73;;
81523;SDS011;70954;49.500;10.416;2023-11-19T13:31:13;0.73;;;0.60;;
81523;SDS011;70954;49.500;10.416;2023-11-19T13:33:39;1.63;;;0.75;;
81523;SDS011;70954;49.500;10.416;2023-11-19T13:36:04;2.42;;;0.77;;
81523;SDS011;70954;49.500;10.416;2023-11-19T13:38:30;0.88;;;0.73;;
81523;SDS011;70954;49.500;10.416;2023-11-19T13:40:56;1.40;;;0.80;;
81523;SDS011;70954;49.500;10.416;2023-11-19T13:43:21;1.23;;;0.90;;
81523;SDS011;70954;49.500;10.416;2023-11-19T13:45:46;1.73;;;1.00;;
81523;SDS011;70954;49.500;10.416;2023-11-19T13:48:12;1.63;;;0.85;;
81523;SDS011;70954;49.500;10.416;2023-11-19T13:50:37;1.83;;;0.90;;
81523;SDS011;70954;49.500;10.416;2023-11-19T13:53:03;2.05;;;0.70;;
81523;SDS011;70954;49.500;10.416;2023-11-19T13:55:28;0.85;;;0.68;;
81523;SDS011;70954;49.500;10.416;2023-11-19T13:57:54;1.05;;;0.80;;
81523;SDS011;70954;49.500;10.416;2023-11-19T14:00:19;1.52;;;0.63;;
81523;SDS011;70954;49.500;10.416;2023-11-19T14:02:45;1.33;;;0.75;;
81523;SDS011;70954;49.500;10.416;2023-11-19T14:05:12;0.98;;;0.70;;
81523;SDS011;70954;49.500;10.416;2023-11-19T14:07:38;1.10;;;0.68;;
81523;SDS011;70954;49.500;10.416;2023-11-19T14:10:04;1.17;;;0.60;;
81523;SDS011;70954;49.500;10.416;2023-11-19T14:12:30;0.93;;;0.60;;
81523;SDS011;70954;49.500;10.416;2023-11-19T14:14:56;1.55;;;0.65;;
81523;SDS011;70954;49.500;10.416;2023-11-19T14:17:21;2.40;;;0.90;;
81523;SDS011;70954;49.500;10.416;2023-11-19T14:19:47;1.48;;;0.70;;
81523;SDS011;70954;49.500;10.416;2023-11-19T14:22:12;1.20;;;0.60;;
81523;SDS011;70954;49.500;10.416;2023-11-19T14:24:38;1.60;;;0.80;;
81523;SDS011;70954;49.500;10.416;2023-11-19T14:27:03;1.75;;;0.70;;
81523;SDS011;70954;49.500;10.416;2023-11-19T14:29:29;2.22;;;0.50;;
81523;SDS011;70954;49.500;10.416;2023-11-19T14:31:54;0.80;;;0.60;;
81523;SDS011;70954;49.500;10.416;2023-11-19T14:34:20;0.90;;;0.50;;
81523;SDS011;70954;49.500;10.416;2023-11-19T14:36:46;1.77;;;0.80;;
81523;SDS011;70954;49.500;10.416;2023-11-19T14:39:11;1.17;;;0.90;;
81523;SDS011;70954;49.500;10.416;2023-11-19T14:41:37;1.30;;;0.70;;
81523;SDS011;70954;49.500;10.416;2023-11-19T14:44:02;1.35;;;0.65;;